TimeCDT,TemperatureF,Dew PointF,Humidity,Sea Level PressureIn,VisibilityMPH,Wind Direction,Wind SpeedMPH,Gust SpeedMPH,PrecipitationIn,Events,Conditions,WindDirDegrees,DateUTC
12:15 AM,64.9,53.2,66,30.05,10.0,North,5.8,-,N/A,,Clear,360,2013-07-02 05:15:00
12:35 AM,64.4,53.2,67,30.05,10.0,North,6.9,-,N/A,,Clear,350,2013-07-02 05:35:00
12:55 AM,64.2,53.1,67,30.05,10.0,North,5.8,-,N/A,,Clear,350,2013-07-02 05:55:00
1:15 AM,63.5,53.1,69,30.05,10.0,North,5.8,-,N/A,,Clear,360,2013-07-02 06:15:00
1:35 AM,63.5,52.9,68,30.04,10.0,North,5.8,-,N/A,,Clear,10,2013-07-02 06:35:00
1:55 AM,63.3,52.5,68,30.04,10.0,North,5.8,-,N/A,,Clear,350,2013-07-02 06:55:00
2:15 AM,63.1,52.2,67,30.04,10.0,NNW,4.6,-,N/A,,Clear,340,2013-07-02 07:15:00
2:35 AM,63.1,52.0,67,30.04,10.0,North,5.8,-,N/A,,Clear,350,2013-07-02 07:35:00
2:55 AM,62.8,52.0,68,30.04,10.0,North,5.8,-,N/A,,Clear,360,2013-07-02 07:55:00
3:15 AM,62.4,52.0,69,30.04,10.0,North,5.8,-,N/A,,Clear,360,2013-07-02 08:15:00
3:35 AM,61.9,52.0,70,30.04,10.0,North,5.8,-,N/A,,Clear,350,2013-07-02 08:35:00
3:55 AM,61.7,52.2,71,30.04,10.0,North,5.8,-,N/A,,Clear,360,2013-07-02 08:55:00
4:15 AM,61.2,52.2,72,30.04,10.0,North,6.9,-,N/A,,Clear,360,2013-07-02 09:15:00
4:35 AM,61.0,52.2,73,30.05,10.0,North,5.8,-,N/A,,Clear,350,2013-07-02 09:35:00
4:55 AM,61.0,52.0,72,30.05,10.0,North,5.8,-,N/A,,Clear,350,2013-07-02 09:55:00
5:15 AM,60.8,51.8,72,30.05,10.0,North,5.8,-,N/A,,Clear,360,2013-07-02 10:15:00
5:35 AM,60.4,51.8,73,30.05,10.0,North,5.8,-,N/A,,Clear,360,2013-07-02 10:35:00
5:55 AM,59.9,51.8,75,30.06,10.0,North,5.8,-,N/A,,Clear,350,2013-07-02 10:55:00
6:15 AM,60.3,51.8,74,30.07,10.0,Calm,Calm,-,N/A,,Clear,0,2013-07-02 11:15:00
6:35 AM,60.8,51.8,72,30.07,10.0,NNW,3.5,-,N/A,,Clear,340,2013-07-02 11:35:00
6:55 AM,60.8,52.5,74,30.08,10.0,NW,4.6,-,N/A,,Clear,320,2013-07-02 11:55:00
7:15 AM,61.3,53.2,75,30.08,10.0,NNW,4.6,-,N/A,,Clear,340,2013-07-02 12:15:00
7:35 AM,62.6,53.2,71,30.08,10.0,NNW,5.8,-,N/A,,Clear,340,2013-07-02 12:35:00
7:55 AM,64.0,53.4,68,30.08,10.0,North,5.8,-,N/A,,Clear,350,2013-07-02 12:55:00
8:15 AM,65.7,53.4,65,30.08,10.0,North,8.1,-,N/A,,Clear,350,2013-07-02 13:15:00
8:35 AM,66.9,53.6,62,30.09,10.0,North,9.2,-,N/A,,Clear,10,2013-07-02 13:35:00
8:55 AM,68.0,53.4,60,30.09,10.0,North,9.2,-,N/A,,Clear,10,2013-07-02 13:55:00
9:15 AM,69.1,53.4,57,30.09,10.0,North,8.1,-,N/A,,Clear,360,2013-07-02 14:15:00
9:35 AM,70.5,53.4,55,30.09,10.0,North,8.1,-,N/A,,Clear,360,2013-07-02 14:35:00
9:55 AM,72.5,53.2,51,30.09,10.0,North,6.9,-,N/A,,Clear,360,2013-07-02 14:55:00
10:15 AM,73.0,52.0,48,30.09,10.0,North,12.7,17.3,N/A,,Clear,360,2013-07-02 15:15:00
10:35 AM,73.8,51.8,46,30.09,10.0,North,11.5,17.3,N/A,,Clear,360,2013-07-02 15:35:00
10:55 AM,75.0,52.2,45,30.09,10.0,North,12.7,18.4,N/A,,Clear,360,2013-07-02 15:55:00
11:15 AM,75.4,50.9,42,30.09,10.0,North,11.5,18.4,N/A,,Clear,360,2013-07-02 16:15:00
11:35 AM,77.0,51.3,40,30.09,10.0,NNE,12.7,16.1,N/A,,Clear,20,2013-07-02 16:35:00
11:55 AM,77.5,49.5,37,30.09,10.0,NNE,13.8,19.6,N/A,,Clear,20,2013-07-02 16:55:00
12:15 PM,77.5,50.2,38,30.09,10.0,North,9.2,18.4,N/A,,Clear,360,2013-07-02 17:15:00
12:35 PM,77.2,50.9,40,30.08,10.0,North,13.8,19.6,N/A,,Clear,360,2013-07-02 17:35:00
12:55 PM,78.1,50.0,37,30.08,10.0,North,16.1,20.7,N/A,,Clear,360,2013-07-02 17:55:00
1:15 PM,79.0,50.7,37,30.08,10.0,North,10.4,17.3,N/A,,Clear,350,2013-07-02 18:15:00
1:35 PM,79.3,50.4,36,30.08,10.0,North,10.4,19.6,N/A,,Clear,360,2013-07-02 18:35:00
1:55 PM,79.7,50.5,36,30.07,10.0,North,11.5,18.4,N/A,,Clear,10,2013-07-02 18:55:00
2:15 PM,80.2,49.3,34,30.07,10.0,NNE,11.5,18.4,N/A,,Scattered Clouds,20,2013-07-02 19:15:00
2:35 PM,80.1,49.3,34,30.07,10.0,North,12.7,17.3,N/A,,Scattered Clouds,360,2013-07-02 19:35:00
2:55 PM,81.0,48.7,32,30.06,10.0,North,11.5,17.3,N/A,,Scattered Clouds,350,2013-07-02 19:55:00
3:15 PM,81.1,49.8,33,30.06,10.0,North,12.7,17.3,N/A,,Scattered Clouds,350,2013-07-02 20:15:00
3:35 PM,81.3,49.8,33,30.05,10.0,North,11.5,17.3,N/A,,Scattered Clouds,10,2013-07-02 20:35:00
3:55 PM,81.3,49.5,33,30.05,10.0,NNE,10.4,-,N/A,,Mostly Cloudy,30,2013-07-02 20:55:00
4:15 PM,81.7,49.1,32,30.05,10.0,NE,9.2,-,N/A,,Mostly Cloudy,40,2013-07-02 21:15:00
4:35 PM,81.5,50.0,33,30.05,10.0,NNE,9.2,-,N/A,,Overcast,20,2013-07-02 21:35:00
4:55 PM,78.8,50.7,37,30.05,10.0,NNE,5.8,-,N/A,,Mostly Cloudy,30,2013-07-02 21:55:00
5:15 PM,80.6,50.7,35,30.05,10.0,North,8.1,-,N/A,,Mostly Cloudy,350,2013-07-02 22:15:00
5:35 PM,81.3,50.5,34,30.04,10.0,North,6.9,-,N/A,,Scattered Clouds,10,2013-07-02 22:35:00
5:55 PM,81.0,50.2,34,30.03,10.0,North,6.9,-,N/A,,Clear,10,2013-07-02 22:55:00
6:15 PM,80.4,48.9,33,30.03,10.0,North,6.9,-,N/A,,Clear,10,2013-07-02 23:15:00
6:35 PM,79.9,48.6,33,30.03,10.0,North,6.9,-,N/A,,Clear,360,2013-07-02 23:35:00
6:55 PM,79.5,49.1,34,30.04,10.0,NNE,5.8,-,N/A,,Clear,20,2013-07-02 23:55:00
7:15 PM,78.6,49.6,36,30.04,10.0,NNE,4.6,-,N/A,,Clear,30,2013-07-03 00:15:00
7:35 PM,77.7,51.1,39,30.04,10.0,Calm,Calm,-,N/A,,Clear,0,2013-07-03 00:35:00
7:55 PM,76.8,52.5,43,30.04,10.0,Calm,Calm,-,N/A,,Clear,0,2013-07-03 00:55:00
8:15 PM,74.7,53.8,48,30.04,10.0,Calm,Calm,-,N/A,,Clear,0,2013-07-03 01:15:00
8:35 PM,72.7,54.9,53,30.04,10.0,Calm,Calm,-,N/A,,Clear,0,2013-07-03 01:35:00
8:55 PM,71.2,55.2,57,30.05,10.0,Calm,Calm,-,N/A,,Scattered Clouds,0,2013-07-03 01:55:00
9:15 PM,69.8,55.6,61,30.05,10.0,Calm,Calm,-,N/A,,Scattered Clouds,0,2013-07-03 02:15:00
9:35 PM,69.4,55.6,61,30.05,10.0,Calm,Calm,-,N/A,,Mostly Cloudy,0,2013-07-03 02:35:00
9:55 PM,68.5,56.5,65,30.07,7.0,NNW,5.8,-,0.02,Rain,Rain,340,2013-07-03 02:55:00
10:15 PM,67.1,58.8,75,30.06,10.0,Calm,Calm,-,N/A,,Overcast,0,2013-07-03 03:15:00
10:35 PM,65.7,59.7,81,30.06,10.0,Calm,Calm,-,N/A,,Mostly Cloudy,0,2013-07-03 03:35:00
10:55 PM,64.8,61.3,89,30.06,10.0,Calm,Calm,-,N/A,,Scattered Clouds,0,2013-07-03 03:55:00
11:15 PM,64.9,60.8,86,30.05,10.0,NW,3.5,-,N/A,,Clear,310,2013-07-03 04:15:00
11:35 PM,64.8,57.4,77,30.05,10.0,NW,4.6,-,N/A,,Clear,320,2013-07-03 04:35:00
11:55 PM,64.9,55.8,72,30.05,10.0,Calm,Calm,-,N/A,,Clear,0,2013-07-03 04:55:00